createdAt,value
2023-05-12T00:01:24.889Z,10.13
2023-05-12T00:03:53.852Z,10.37
2023-05-12T00:06:21.103Z,10.36
2023-05-12T00:08:47.886Z,10.36
2023-05-12T00:11:14.710Z,9.28
2023-05-12T00:13:41.438Z,10.08
2023-05-12T00:16:08.171Z,9.01
2023-05-12T00:18:34.983Z,8.74
2023-05-12T00:21:01.746Z,8.96
2023-05-12T00:23:28.435Z,8.06
2023-05-12T00:25:55.144Z,9.31
2023-05-12T00:28:22.137Z,9.67
2023-05-12T00:30:48.791Z,9.07
2023-05-12T00:33:17.164Z,8.98
2023-05-12T00:35:47.074Z,10.04
2023-05-12T00:38:14.024Z,10.15
2023-05-12T00:40:41.366Z,10.24
2023-05-12T00:43:08.662Z,10.30
2023-05-12T00:45:35.950Z,10.11
2023-05-12T00:48:04.520Z,9.88
2023-05-12T00:50:31.530Z,8.61
2023-05-12T00:53:00.818Z,10.14
2023-05-12T00:55:29.624Z,9.54
2023-05-12T00:57:56.396Z,9.45
2023-05-12T01:00:23.565Z,9.77
2023-05-12T01:02:50.492Z,8.85
2023-05-12T01:05:18.042Z,10.27
2023-05-12T01:07:46.909Z,10.27
2023-05-12T01:10:21.665Z,8.88
2023-05-12T01:12:48.862Z,10.30
2023-05-12T01:15:16.803Z,9.60
2023-05-12T01:17:50.441Z,10.30
2023-05-12T01:20:21.755Z,9.31
2023-05-12T01:22:50.014Z,10.34
2023-05-12T01:25:17.308Z,9.55
2023-05-12T01:27:46.514Z,8.86
2023-05-12T01:30:18.422Z,10.33
2023-05-12T01:32:45.669Z,8.05
2023-05-12T01:35:13.025Z,10.22
2023-05-12T01:37:46.476Z,9.79
2023-05-12T01:40:13.560Z,9.90
2023-05-12T01:42:42.364Z,8.45
2023-05-12T01:45:10.957Z,9.87
2023-05-12T01:47:38.141Z,9.31
2023-05-12T01:50:10.287Z,8.82
2023-05-12T01:52:37.493Z,8.61
2023-05-12T01:55:09.139Z,9.14
2023-05-12T01:57:56.121Z,9.21
2023-05-12T02:00:23.524Z,8.61
2023-05-12T02:02:53.496Z,8.88
2023-05-12T02:05:20.338Z,8.79
2023-05-12T02:07:49.290Z,8.49
2023-05-12T02:10:16.914Z,8.96
2023-05-12T02:12:44.236Z,9.07
2023-05-12T02:15:11.519Z,8.33
2023-05-12T02:17:43.045Z,8.09
2023-05-12T02:20:12.357Z,8.90
2023-05-12T02:22:39.192Z,9.09
2023-05-12T02:25:06.550Z,9.02
2023-05-12T02:27:33.637Z,9.18
2023-05-12T02:30:00.727Z,9.08
2023-05-12T02:32:30.819Z,8.97
2023-05-12T02:34:57.543Z,8.74
2023-05-12T02:37:24.287Z,8.98
2023-05-12T02:39:51.048Z,8.44
2023-05-12T02:42:18.763Z,8.86
2023-05-12T02:44:45.550Z,7.26
2023-05-12T02:47:12.300Z,9.70
2023-05-12T02:49:39.068Z,9.79
2023-05-12T02:52:06.397Z,10.16
2023-05-12T02:54:33.184Z,9.20
2023-05-12T02:57:04.890Z,9.71
2023-05-12T02:59:32.255Z,9.26
2023-05-12T03:01:58.964Z,9.97
2023-05-12T03:04:25.758Z,9.86
2023-05-12T03:06:52.500Z,9.56
2023-05-12T03:09:19.602Z,9.61
2023-05-12T03:11:46.450Z,7.72
2023-05-12T03:14:13.214Z,10.15
2023-05-12T03:16:40.422Z,10.23
2023-05-12T03:19:07.425Z,8.49
2023-05-12T03:21:34.460Z,9.77
2023-05-12T03:24:01.905Z,9.62
2023-05-12T03:26:28.709Z,8.84
2023-05-12T03:28:55.708Z,9.04
2023-05-12T03:31:22.581Z,9.48
2023-05-12T03:33:49.384Z,8.18
2023-05-12T03:36:16.313Z,10.21
2023-05-12T03:38:42.998Z,9.88
2023-05-12T03:41:09.643Z,8.70
2023-05-12T03:43:36.708Z,8.57
2023-05-12T03:46:03.970Z,10.14
2023-05-12T03:48:30.894Z,9.66
2023-05-12T03:50:57.860Z,10.05
2023-05-12T03:53:24.651Z,8.94
2023-05-12T03:55:51.449Z,8.79
2023-05-12T03:58:18.446Z,9.06
2023-05-12T04:00:45.378Z,9.56
2023-05-12T04:03:12.198Z,9.01
2023-05-12T04:05:39.715Z,9.38
2023-05-12T04:08:06.476Z,8.99
2023-05-12T04:10:33.200Z,9.07
2023-05-12T04:12:59.836Z,9.78
2023-05-12T04:15:26.742Z,6.76
2023-05-12T04:17:53.588Z,9.07
2023-05-12T04:20:20.687Z,8.74
2023-05-12T04:22:47.721Z,9.98
2023-05-12T04:25:14.706Z,10.00
2023-05-12T04:27:41.466Z,8.80
2023-05-12T04:30:08.833Z,8.37
2023-05-12T04:32:37.418Z,10.25
2023-05-12T04:35:05.285Z,10.28
2023-05-12T04:37:32.305Z,8.73
2023-05-12T04:39:59.071Z,10.06
2023-05-12T04:42:26.779Z,9.50
2023-05-12T04:44:53.777Z,9.47
2023-05-12T04:47:20.525Z,9.52
2023-05-12T04:49:47.253Z,9.22
2023-05-12T04:52:14.712Z,9.12
2023-05-12T04:54:41.901Z,8.46
2023-05-12T04:57:08.592Z,9.20
2023-05-12T04:59:36.177Z,9.80
2023-05-12T05:02:03.010Z,8.70
2023-05-12T05:04:29.847Z,9.87
2023-05-12T05:06:56.602Z,10.53
2023-05-12T05:09:24.311Z,10.41
2023-05-12T05:11:53.106Z,10.40
2023-05-12T05:14:22.271Z,7.66
2023-05-12T05:16:49.111Z,9.67
2023-05-12T05:19:24.427Z,10.39
2023-05-12T05:21:57.005Z,9.45
2023-05-12T05:24:23.889Z,10.56
2023-05-12T05:26:50.677Z,10.45
2023-05-12T05:29:17.687Z,10.44
2023-05-12T05:31:44.517Z,11.29
2023-05-12T05:34:11.359Z,11.32
2023-05-12T05:36:38.036Z,11.06
2023-05-12T05:39:05.079Z,11.42
2023-05-12T05:41:31.939Z,11.21
2023-05-12T05:43:59.564Z,10.59
2023-05-12T05:46:26.445Z,11.17
2023-05-12T05:48:53.129Z,11.58
2023-05-12T05:51:20.121Z,11.49
2023-05-12T05:53:46.960Z,10.97
2023-05-12T05:56:14.974Z,11.50
2023-05-12T05:58:41.643Z,11.89
2023-05-12T06:01:08.426Z,11.27
2023-05-12T06:03:36.033Z,11.51
2023-05-12T06:06:03.038Z,11.25
2023-05-12T06:08:29.717Z,12.06
2023-05-12T06:10:56.477Z,11.46
2023-05-12T06:13:23.094Z,12.15
2023-05-12T06:15:49.831Z,11.42
2023-05-12T06:18:16.753Z,12.05
2023-05-12T06:20:43.472Z,12.21
2023-05-12T06:23:10.809Z,12.03
2023-05-12T06:25:38.818Z,12.28
2023-05-12T06:28:05.766Z,12.36
2023-05-12T06:30:33.793Z,12.36
2023-05-12T06:33:00.870Z,12.40
2023-05-12T06:35:28.163Z,11.41
2023-05-12T06:37:54.870Z,12.24
2023-05-12T06:40:21.614Z,12.51
2023-05-12T06:42:48.292Z,12.53
2023-05-12T06:45:19.978Z,12.57
2023-05-12T06:47:47.007Z,12.59
2023-05-12T06:50:13.750Z,12.68
2023-05-12T06:52:40.642Z,12.75
2023-05-12T06:55:07.747Z,12.81
2023-05-12T06:57:34.566Z,11.96
2023-05-12T07:00:03.238Z,12.34
2023-05-12T07:02:30.892Z,12.18
2023-05-12T07:04:57.965Z,13.15
2023-05-12T07:07:24.714Z,13.02
2023-05-12T07:09:51.439Z,13.01
2023-05-12T07:12:18.370Z,12.73
2023-05-12T07:14:45.031Z,13.38
2023-05-12T07:17:11.735Z,13.19
2023-05-12T07:19:40.260Z,12.28
2023-05-12T07:22:07.086Z,12.93
2023-05-12T07:24:34.057Z,12.84
2023-05-12T07:27:00.887Z,13.28
2023-05-12T07:29:27.572Z,12.89
2023-05-12T07:31:54.358Z,13.02
2023-05-12T07:34:21.261Z,11.72
2023-05-12T07:36:47.917Z,13.21
2023-05-12T07:39:19.127Z,12.95
2023-05-12T07:41:47.907Z,13.60
2023-05-12T07:44:14.718Z,12.50
2023-05-12T07:46:41.558Z,13.52
2023-05-12T07:49:08.292Z,13.32
2023-05-12T07:51:35.362Z,13.13
2023-05-12T07:54:02.143Z,13.90
2023-05-12T07:56:28.901Z,13.98
2023-05-12T07:58:56.312Z,13.98
2023-05-12T08:01:24.121Z,13.99
2023-05-12T08:03:51.658Z,13.64
2023-05-12T08:06:18.747Z,13.60
2023-05-12T08:08:45.565Z,13.85
2023-05-12T08:11:12.820Z,14.10
2023-05-12T08:13:39.720Z,13.44
2023-05-12T08:16:06.454Z,12.93
2023-05-12T08:18:33.124Z,13.20
2023-05-12T08:20:59.859Z,13.49
2023-05-12T08:23:26.697Z,14.30
2023-05-12T08:25:53.471Z,13.55
2023-05-12T08:28:20.089Z,13.72
2023-05-12T08:30:46.829Z,13.31
2023-05-12T08:33:13.933Z,12.06
2023-05-12T08:35:40.921Z,13.81
2023-05-12T08:38:07.798Z,13.56
2023-05-12T08:40:53.930Z,14.18
2023-05-12T08:43:38.360Z,14.46
2023-05-12T08:46:06.282Z,14.73
2023-05-12T08:48:34.672Z,14.70
2023-05-12T08:51:03.312Z,14.03
2023-05-12T08:53:30.926Z,14.57
2023-05-12T08:58:48.517Z,14.85
2023-05-12T09:01:16.798Z,14.81
2023-05-12T09:03:44.222Z,14.21
2023-05-12T09:06:12.153Z,14.81
2023-05-12T09:08:40.494Z,14.81
2023-05-12T09:11:11.539Z,14.19
2023-05-12T09:13:50.870Z,14.94
2023-05-12T09:16:22.426Z,15.01
2023-05-12T09:19:00.257Z,14.77
2023-05-12T09:21:28.485Z,14.97
2023-05-12T09:24:06.852Z,14.59
2023-05-12T09:26:48.721Z,14.02
2023-05-12T09:29:27.754Z,14.41
2023-05-12T09:31:59.595Z,13.96
2023-05-12T09:34:31.296Z,14.26
2023-05-12T09:37:01.040Z,13.13
2023-05-12T09:39:29.188Z,15.31
2023-05-12T09:41:56.353Z,14.99
2023-05-12T09:44:24.493Z,15.21
2023-05-12T09:46:51.789Z,15.15
2023-05-12T09:49:26.806Z,15.22
2023-05-12T09:51:56.216Z,15.40
2023-05-12T09:54:27.529Z,15.30
2023-05-12T09:57:06.867Z,14.29
2023-05-12T09:59:36.436Z,15.57
2023-05-12T10:02:06.273Z,15.55
2023-05-12T10:05:06.289Z,15.51
2023-05-12T10:07:34.281Z,15.42
2023-05-12T10:10:04.436Z,15.66
2023-05-12T10:12:31.572Z,15.91
2023-05-12T10:14:59.666Z,14.60
2023-05-12T10:17:26.926Z,14.09
2023-05-12T10:19:54.979Z,15.70
2023-05-12T10:22:21.856Z,16.20
2023-05-12T10:24:49.369Z,15.00
2023-05-12T10:27:17.210Z,16.27
2023-05-12T10:29:44.594Z,15.86
2023-05-12T10:32:11.532Z,15.18
2023-05-12T10:34:40.776Z,16.14
2023-05-12T10:37:11.382Z,16.53
2023-05-12T10:39:47.581Z,16.50
2023-05-12T10:42:17.369Z,15.56
2023-05-12T10:44:52.721Z,15.99
2023-05-12T10:47:26.762Z,16.35
2023-05-12T10:49:58.706Z,16.64
2023-05-12T10:52:25.882Z,16.70
2023-05-12T10:55:00.384Z,16.33
2023-05-12T10:57:27.653Z,16.72
2023-05-12T10:59:59.812Z,16.38
2023-05-12T11:02:35.934Z,16.65
2023-05-12T11:05:10.568Z,16.87
2023-05-12T11:07:38.045Z,16.39
2023-05-12T11:10:06.070Z,16.60
2023-05-12T11:12:38.092Z,16.36
2023-05-12T11:15:06.686Z,16.83
2023-05-12T11:17:34.084Z,16.82
2023-05-12T11:20:01.593Z,17.13
2023-05-12T11:22:29.250Z,17.14
2023-05-12T11:24:56.217Z,15.89
2023-05-12T11:27:23.804Z,16.99
2023-05-12T11:29:59.428Z,16.73
2023-05-12T11:32:26.744Z,17.06
2023-05-12T11:34:53.488Z,16.25
2023-05-12T11:37:27.323Z,16.97
2023-05-12T11:39:54.107Z,15.87
2023-05-12T11:42:22.902Z,16.61
2023-05-12T11:44:51.935Z,17.54
2023-05-12T11:47:19.972Z,17.68
2023-05-12T11:49:55.164Z,17.41
2023-05-12T11:52:24.323Z,17.79
2023-05-12T11:54:52.956Z,17.73
2023-05-12T11:57:44.280Z,17.69
2023-05-12T12:00:27.328Z,16.12
2023-05-12T12:03:05.771Z,17.17
2023-05-12T12:05:32.543Z,17.09
2023-05-12T12:08:14.189Z,17.84
2023-05-12T12:10:46.815Z,17.84
2023-05-12T12:13:20.294Z,17.24
2023-05-12T12:15:47.396Z,17.87
2023-05-12T12:18:15.198Z,17.63
2023-05-12T12:20:42.670Z,16.73
2023-05-12T12:23:11.067Z,17.89
2023-05-12T12:25:38.046Z,17.41
2023-05-12T12:28:05.254Z,17.67
2023-05-12T12:30:32.138Z,16.97
2023-05-12T12:32:58.930Z,17.74
2023-05-12T12:35:25.921Z,17.77
2023-05-12T12:37:52.799Z,17.82
2023-05-12T12:40:20.283Z,18.03
2023-05-12T12:42:47.866Z,17.51
2023-05-12T12:45:14.812Z,18.02
2023-05-12T12:47:41.679Z,16.85
2023-05-12T12:50:10.627Z,17.49
2023-05-12T12:52:38.627Z,17.88
2023-05-12T12:55:06.832Z,17.25
2023-05-12T12:57:33.644Z,18.15
2023-05-12T13:00:00.369Z,16.92
2023-05-12T13:02:35.851Z,18.34
2023-05-12T13:05:08.262Z,17.62
2023-05-12T13:07:35.025Z,17.83
2023-05-12T13:10:01.711Z,17.90
2023-05-12T13:12:30.563Z,17.42
2023-05-12T13:14:57.437Z,18.55
2023-05-12T13:17:24.084Z,17.43
2023-05-12T13:19:50.789Z,18.47
2023-05-12T13:22:17.549Z,17.18
2023-05-12T13:24:44.470Z,18.03
2023-05-12T13:27:11.305Z,18.67
2023-05-12T13:29:39.859Z,18.65
2023-05-12T13:32:07.090Z,18.31
2023-05-12T13:34:33.958Z,18.60
2023-05-12T13:37:00.851Z,18.18
2023-05-12T13:39:27.748Z,17.82
2023-05-12T13:41:54.633Z,16.68
2023-05-12T13:44:21.401Z,15.98
2023-05-12T13:46:48.436Z,18.45
2023-05-12T13:49:15.130Z,17.65
2023-05-12T13:51:42.000Z,17.71
2023-05-12T13:54:08.637Z,17.95
2023-05-12T13:56:35.444Z,18.43
2023-05-12T13:59:02.167Z,17.87
2023-05-12T14:01:28.782Z,17.98
2023-05-12T14:03:55.540Z,18.43
2023-05-12T14:06:22.296Z,17.18
2023-05-12T14:08:49.439Z,17.99
2023-05-12T14:11:16.835Z,17.85
2023-05-12T14:13:43.761Z,17.85
2023-05-12T14:16:13.258Z,17.48
2023-05-12T14:18:42.588Z,18.40
2023-05-12T14:21:10.187Z,18.15
2023-05-12T14:23:37.703Z,18.42
2023-05-12T14:26:05.016Z,18.35
2023-05-12T14:28:31.703Z,18.11
2023-05-12T14:30:58.486Z,18.31
2023-05-12T14:33:25.260Z,18.34
2023-05-12T14:36:03.045Z,18.38
2023-05-12T14:38:33.540Z,17.79
2023-05-12T14:41:00.184Z,18.47
2023-05-12T14:43:26.842Z,18.43
2023-05-12T14:45:54.768Z,18.44
2023-05-12T14:48:23.346Z,18.16
2023-05-12T14:50:53.950Z,17.95
2023-05-12T14:53:20.899Z,18.47
2023-05-12T14:55:49.126Z,18.39
2023-05-12T14:58:17.669Z,18.53
2023-05-12T15:00:44.945Z,18.59
2023-05-12T15:03:11.893Z,18.58
2023-05-12T15:05:56.897Z,18.45
2023-05-12T15:08:25.541Z,17.16
2023-05-12T15:10:52.199Z,18.46
2023-05-12T15:13:20.484Z,18.38
2023-05-12T15:15:47.208Z,18.09
2023-05-12T15:18:14.288Z,18.05
2023-05-12T15:20:40.973Z,17.15
2023-05-12T15:23:07.734Z,18.24
2023-05-12T15:25:34.658Z,18.31
2023-05-12T15:28:01.421Z,18.26
2023-05-12T15:30:28.059Z,18.27
2023-05-12T15:32:54.816Z,17.60
2023-05-12T15:35:21.684Z,17.90
2023-05-12T15:37:49.001Z,18.41
2023-05-12T15:40:15.964Z,18.35
2023-05-12T15:42:42.685Z,18.37
2023-05-12T15:45:09.862Z,18.02
2023-05-12T15:47:36.704Z,18.35
2023-05-12T15:50:04.316Z,18.37
2023-05-12T15:52:31.132Z,18.11
2023-05-12T15:54:57.955Z,18.12
2023-05-12T15:57:24.715Z,18.26
2023-05-12T15:59:57.546Z,18.18
2023-05-12T16:02:24.520Z,17.53
2023-05-12T16:04:51.174Z,17.64
2023-05-12T16:07:17.976Z,17.86
2023-05-12T16:09:44.687Z,18.18
2023-05-12T16:12:11.796Z,18.16
2023-05-12T16:14:38.680Z,18.08
2023-05-12T16:17:05.451Z,18.22
2023-05-12T16:19:32.301Z,17.25
2023-05-12T16:22:00.366Z,17.99
2023-05-12T16:24:28.736Z,18.12
2023-05-12T16:26:56.232Z,18.03
2023-05-12T16:29:22.914Z,18.01
2023-05-12T16:31:49.905Z,17.77
2023-05-12T16:34:16.631Z,17.85
2023-05-12T16:36:43.387Z,17.55
2023-05-12T16:39:10.341Z,17.78
2023-05-12T16:41:37.310Z,17.47
2023-05-12T16:44:04.470Z,16.95
2023-05-12T16:46:32.785Z,17.34
2023-05-12T16:48:59.566Z,17.59
2023-05-12T16:51:30.415Z,17.58
2023-05-12T16:53:57.683Z,17.57
2023-05-12T16:56:25.902Z,17.33
2023-05-12T16:58:52.601Z,17.52
2023-05-12T17:01:19.288Z,17.50
2023-05-12T17:03:46.199Z,17.51
2023-05-12T17:06:13.170Z,17.50
2023-05-12T17:08:39.886Z,17.42
2023-05-12T17:11:06.687Z,17.38
2023-05-12T17:13:36.116Z,17.31
2023-05-12T17:16:02.950Z,17.33
2023-05-12T17:18:30.549Z,17.33
2023-05-12T17:20:57.286Z,16.66
2023-05-12T17:23:24.242Z,17.22
2023-05-12T17:25:50.923Z,16.69
2023-05-12T17:28:17.679Z,16.76
2023-05-12T17:30:44.336Z,16.95
2023-05-12T17:33:11.420Z,16.90
2023-05-12T17:35:38.360Z,14.87
2023-05-12T17:38:05.204Z,16.80
2023-05-12T17:40:31.988Z,16.63
2023-05-12T17:42:58.664Z,16.78
2023-05-12T17:45:28.316Z,16.78
2023-05-12T17:47:55.506Z,16.44
2023-05-12T17:50:22.261Z,16.43
2023-05-12T17:52:49.164Z,15.86
2023-05-12T17:55:16.228Z,16.52
2023-05-12T17:57:42.820Z,16.27
2023-05-12T18:00:10.576Z,16.41
2023-05-12T18:02:43.782Z,16.32
2023-05-12T18:05:10.819Z,15.62
2023-05-12T18:07:37.692Z,16.17
2023-05-12T18:10:08.118Z,15.95
2023-05-12T18:12:35.153Z,16.07
2023-05-12T18:15:02.442Z,15.41
2023-05-12T18:17:31.155Z,15.66
2023-05-12T18:19:58.252Z,16.08
2023-05-12T18:22:25.068Z,16.05
2023-05-12T18:24:51.788Z,16.12
2023-05-12T18:27:18.628Z,16.09
2023-05-12T18:29:45.500Z,15.17
2023-05-12T18:32:12.396Z,15.88
2023-05-12T18:34:39.258Z,15.94
2023-05-12T18:37:06.141Z,15.55
2023-05-12T18:39:33.003Z,15.72
2023-05-12T18:41:59.789Z,15.74
2023-05-12T18:44:26.525Z,15.81
2023-05-12T18:46:53.318Z,15.82
2023-05-12T18:49:20.159Z,15.86
2023-05-12T18:51:46.966Z,15.19
2023-05-12T18:54:13.709Z,15.84
2023-05-12T18:56:40.702Z,15.82
2023-05-12T18:59:07.516Z,14.89
2023-05-12T19:01:34.243Z,15.92
2023-05-12T19:04:00.898Z,15.66
2023-05-12T19:06:27.980Z,14.26
2023-05-12T19:08:54.782Z,15.97
2023-05-12T19:11:21.516Z,15.92
2023-05-12T19:13:50.705Z,16.03
2023-05-12T19:16:18.106Z,16.04
2023-05-12T19:18:46.352Z,16.08
2023-05-12T19:21:23.767Z,16.09
2023-05-12T19:24:04.404Z,16.08
2023-05-12T19:26:43.493Z,15.48
2023-05-12T19:29:16.817Z,16.08
2023-05-12T19:32:12.402Z,16.07
2023-05-12T19:34:49.919Z,15.96
2023-05-12T19:37:29.899Z,15.65
2023-05-12T19:39:56.732Z,14.78
2023-05-12T19:42:23.450Z,15.44
2023-05-12T19:44:50.655Z,15.00
2023-05-12T19:47:17.540Z,15.24
2023-05-12T19:49:44.416Z,15.32
2023-05-12T19:52:11.393Z,15.38
2023-05-12T19:54:41.594Z,15.46
2023-05-12T19:57:11.799Z,14.69
2023-05-12T19:59:39.554Z,15.56
2023-05-12T20:02:14.154Z,15.23
2023-05-12T20:04:41.182Z,15.56
2023-05-12T20:07:07.908Z,14.56
2023-05-12T20:09:34.538Z,14.39
2023-05-12T20:12:01.242Z,15.21
2023-05-12T20:14:27.816Z,15.15
2023-05-12T20:16:55.668Z,15.19
2023-05-12T20:19:22.384Z,14.84
2023-05-12T20:21:49.048Z,14.00
2023-05-12T20:24:15.679Z,15.19
2023-05-12T20:26:42.577Z,15.22
2023-05-12T20:29:09.142Z,15.00
2023-05-12T20:31:35.834Z,14.48
2023-05-12T20:34:02.723Z,15.05
2023-05-12T20:36:29.372Z,14.70
2023-05-12T20:38:56.197Z,14.55
2023-05-12T20:41:22.883Z,14.34
2023-05-12T20:43:49.580Z,14.05
2023-05-12T20:46:16.503Z,14.42
2023-05-12T20:48:43.309Z,14.25
2023-05-12T20:51:11.769Z,14.31
2023-05-12T20:53:38.977Z,11.47
2023-05-12T20:56:08.349Z,14.09
2023-05-12T20:58:35.296Z,14.12
2023-05-12T21:01:02.006Z,13.01
2023-05-12T21:03:29.224Z,13.24
2023-05-12T21:05:55.987Z,14.07
2023-05-12T21:08:22.722Z,13.26
2023-05-12T21:10:49.454Z,13.06
2023-05-12T21:13:16.141Z,13.78
2023-05-12T21:15:42.938Z,13.64
2023-05-12T21:18:09.620Z,13.72
2023-05-12T21:20:36.850Z,13.81
2023-05-12T21:23:09.286Z,14.07
2023-05-12T21:25:36.069Z,14.20
2023-05-12T21:28:02.972Z,13.84
2023-05-12T21:30:29.656Z,13.47
2023-05-12T21:32:56.361Z,14.49
2023-05-12T21:35:23.105Z,14.59
2023-05-12T21:37:49.923Z,14.26
2023-05-12T21:40:16.818Z,13.78
2023-05-12T21:42:43.480Z,14.64
2023-05-12T21:45:10.450Z,14.64
2023-05-12T21:47:37.220Z,14.65
2023-05-12T21:50:04.509Z,14.55
2023-05-12T21:52:31.146Z,14.39
2023-05-12T21:54:58.098Z,14.45
2023-05-12T21:57:24.832Z,14.24
2023-05-12T21:59:51.545Z,13.96
2023-05-12T22:02:18.227Z,13.88
2023-05-12T22:04:44.974Z,13.56
2023-05-12T22:07:11.613Z,13.05
2023-05-12T22:09:38.289Z,13.12
2023-05-12T22:12:05.436Z,13.13
2023-05-12T22:14:32.113Z,13.17
2023-05-12T22:16:58.875Z,12.97
2023-05-12T22:19:25.503Z,11.95
2023-05-12T22:21:52.881Z,12.95
2023-05-12T22:24:19.552Z,12.84
2023-05-12T22:26:46.494Z,12.43
2023-05-12T22:29:13.574Z,12.79
2023-05-12T22:31:40.445Z,12.54
2023-05-12T22:34:07.143Z,12.58
2023-05-12T22:36:34.009Z,12.76
2023-05-12T22:39:00.683Z,12.90
2023-05-12T22:41:27.337Z,12.75
2023-05-12T22:43:54.040Z,12.58
2023-05-12T22:46:21.676Z,12.46
2023-05-12T22:48:49.909Z,12.69
2023-05-12T22:51:16.696Z,12.60
2023-05-12T22:53:43.364Z,12.23
2023-05-12T22:56:10.137Z,12.29
2023-05-12T22:58:36.895Z,12.34
2023-05-12T23:01:03.757Z,12.07
2023-05-12T23:03:30.792Z,12.19
2023-05-12T23:05:57.517Z,12.32
2023-05-12T23:08:24.225Z,12.44
2023-05-12T23:10:50.822Z,12.65
2023-05-12T23:13:17.565Z,12.61
2023-05-12T23:15:44.283Z,9.96
2023-05-12T23:18:11.070Z,12.43
2023-05-12T23:20:37.853Z,11.50
2023-05-12T23:23:04.563Z,12.57
2023-05-12T23:25:31.721Z,11.66
2023-05-12T23:27:58.566Z,12.48
2023-05-12T23:30:25.393Z,11.67
2023-05-12T23:32:52.175Z,12.47
2023-05-12T23:35:18.973Z,12.24
2023-05-12T23:37:45.714Z,12.05
2023-05-12T23:40:12.465Z,11.35
2023-05-12T23:42:39.132Z,11.72
2023-05-12T23:45:06.560Z,12.10
2023-05-12T23:47:33.318Z,11.86
2023-05-12T23:49:59.983Z,11.85
2023-05-12T23:52:26.606Z,11.86
2023-05-12T23:54:53.265Z,11.83
2023-05-12T23:57:20.037Z,11.70
2023-05-12T23:59:46.715Z,11.73
